Time;durP1;ratioP1;P1;durP2;ratioP2;P2;SDS_P1;SDS_P2;PMS_P1;PMS_P2;Temp;Humidity;BMP_temperature;BMP_pressure;BME280_temperature;BME280_humidity;BME280_pressure;Samples;Min_cycle;Max_cycle;Signal;HPM_P1;HPM_P2
2022/08/20 00:04:16;;;;;;;20.83;17.30;;;;;;;21.53;63.78;100197.09;10412543;28;20073;-78
2022/08/20 00:09:19;;;;;;;23.63;18.15;;;;;;;21.50;63.46;100186.56;10416716;28;20049;-79
2022/08/20 00:14:23;;;;;;;24.15;16.63;;;;;;;21.49;63.44;100187.59;10418510;28;20070;-80
2022/08/20 00:19:26;;;;;;;18.50;16.50;;;;;;;21.55;63.76;100177.75;10413566;28;20064;-79
2022/08/20 00:24:29;;;;;;;25.15;18.58;;;;;;;21.62;62.99;100181.38;10397814;28;20051;-78
2022/08/20 00:29:34;;;;;;;25.08;18.25;;;;;;;21.32;63.97;100198.00;10400323;28;20514;-77
2022/08/20 00:34:37;;;;;;;27.23;19.52;;;;;;;20.66;67.25;100201.00;10429353;28;20057;-78
2022/08/20 00:39:39;;;;;;;27.83;20.83;;;;;;;20.49;68.18;100196.84;10403576;28;20063;-77
2022/08/20 00:44:47;;;;;;;28.77;20.48;;;;;;;20.03;70.06;100208.03;10416341;28;20052;-78
2022/08/20 00:49:50;;;;;;;29.65;22.90;;;;;;;19.92;71.01;100205.78;10417072;28;20541;-78
2022/08/20 00:54:58;;;;;;;27.15;23.00;;;;;;;19.90;71.16;100217.72;10409378;28;20646;-78
2022/08/20 01:00:10;;;;;;;32.90;23.55;;;;;;;20.25;69.76;100211.66;10398270;28;20037;-78
2022/08/20 01:05:13;;;;;;;27.25;22.50;;;;;;;20.15;70.19;100211.94;10381941;28;20142;-78
2022/08/20 01:10:29;;;;;;;27.52;21.80;;;;;;;20.35;69.36;100212.22;10418707;28;20095;-78
2022/08/20 01:15:33;;;;;;;28.70;21.50;;;;;;;20.36;69.23;100226.72;10389363;28;20088;-78
2022/08/20 01:20:39;;;;;;;32.22;23.08;;;;;;;20.26;69.70;100233.25;10399980;28;20049;-77
2022/08/20 01:25:48;;;;;;;27.40;20.08;;;;;;;20.31;69.45;100230.00;10417610;28;20053;-76
2022/08/20 01:30:52;;;;;;;27.48;21.20;;;;;;;20.60;68.55;100234.53;10425124;28;20065;-78
2022/08/20 01:35:55;;;;;;;28.70;20.33;;;;;;;20.82;67.78;100234.53;10393169;28;20511;-79
2022/08/20 01:41:15;;;;;;;26.98;20.92;;;;;;;20.71;67.83;100230.44;10416605;28;20053;-77
2022/08/20 01:46:19;;;;;;;29.35;21.65;;;;;;;20.60;68.05;100236.38;10404597;28;20056;-80
2022/08/20 01:51:25;;;;;;;27.65;21.08;;;;;;;20.34;69.09;100238.63;10382689;28;21157;-78
2022/08/20 01:56:31;;;;;;;24.75;20.67;;;;;;;20.46;69.13;100235.41;10392171;28;20699;-78
2022/08/20 02:01:37;;;;;;;27.42;20.83;;;;;;;20.45;69.44;100236.44;10404459;28;20138;-78
2022/08/20 02:06:53;;;;;;;28.77;21.35;;;;;;;20.76;68.32;100237.00;10442856;28;21241;-78
2022/08/20 02:12:02;;;;;;;29.80;21.73;;;;;;;20.86;68.02;100228.47;10447477;28;20744;-78
2022/08/20 02:17:05;;;;;;;30.38;20.08;;;;;;;20.72;68.14;100240.31;10452522;28;20037;-78
2022/08/20 02:22:21;;;;;;;27.83;21.60;;;;;;;20.52;68.73;100235.50;10418770;28;20056;-78
2022/08/20 02:27:25;;;;;;;28.77;21.73;;;;;;;20.26;69.70;100238.72;10439381;28;20521;-78
2022/08/20 02:32:28;;;;;;;27.77;20.50;;;;;;;20.21;70.08;100235.72;10417714;28;20138;-78
2022/08/20 02:37:36;;;;;;;25.42;19.90;;;;;;;20.19;70.24;100240.53;10462321;28;20056;-77
2022/08/20 02:42:41;;;;;;;28.60;22.38;;;;;;;20.08;70.62;100243.75;10455171;28;20055;-78
2022/08/20 02:47:45;;;;;;;29.70;20.98;;;;;;;20.04;70.86;100229.63;10420380;28;20062;-79
2022/08/20 02:52:48;;;;;;;27.02;20.70;;;;;;;19.78;71.49;100237.47;10428324;28;20045;-78
2022/08/20 02:57:56;;;;;;;28.45;20.77;;;;;;;19.68;72.03;100246.75;10457608;28;20067;-79
2022/08/20 03:03:01;;;;;;;26.75;21.02;;;;;;;19.69;71.90;100239.44;10432812;28;20572;-77
2022/08/20 03:08:05;;;;;;;26.65;20.55;;;;;;;19.94;70.77;100247.31;10433513;28;20136;-78
2022/08/20 03:13:11;;;;;;;31.40;22.00;;;;;;;19.99;70.56;100239.41;10442460;28;20056;-78
2022/08/20 03:18:16;;;;;;;28.77;21.73;;;;;;;19.64;71.95;100241.91;10418753;28;20053;-79
2022/08/20 03:23:21;;;;;;;28.20;22.05;;;;;;;19.76;71.30;100237.66;10438164;28;20702;-78
2022/08/20 03:28:25;;;;;;;30.95;22.50;;;;;;;19.80;71.21;100243.56;10448063;28;20560;-78
2022/08/20 03:33:30;;;;;;;28.85;21.10;;;;;;;19.59;71.89;100247.06;10469348;28;20041;-77
2022/08/20 03:38:33;;;;;;;31.88;22.08;;;;;;;19.68;71.71;100246.75;10445469;28;20052;-79
2022/08/20 03:43:37;;;;;;;30.95;22.27;;;;;;;19.87;71.10;100256.25;10425846;28;20068;-79
2022/08/20 03:48:40;;;;;;;30.75;21.30;;;;;;;19.93;71.04;100268.28;10449987;28;20053;-78
2022/08/20 03:53:43;;;;;;;33.22;22.75;;;;;;;19.68;72.09;100263.09;10475496;28;20628;-77
2022/08/20 03:58:47;;;;;;;30.13;23.63;;;;;;;19.93;71.79;100273.72;10448123;28;20057;-77
2022/08/20 04:03:50;;;;;;;34.70;24.48;;;;;;;20.15;72.13;100271.94;10438229;28;21227;-77
2022/08/20 04:08:57;;;;;;;32.80;24.45;;;;;;;20.08;74.34;100268.28;10448439;28;20532;-77
2022/08/20 04:14:01;;;;;;;38.33;27.35;;;;;;;19.87;76.78;100278.06;10448740;28;20516;-76
2022/08/20 04:19:06;;;;;;;40.70;30.35;;;;;;;19.39;79.95;100273.94;10442955;28;20052;-77
2022/08/20 04:24:09;;;;;;;47.38;32.67;;;;;;;19.12;82.61;100283.56;10433428;28;20587;-78
2022/08/20 04:29:35;;;;;;;50.05;34.28;;;;;;;18.96;84.14;100279.91;10446624;28;20072;-79
2022/08/20 04:34:39;;;;;;;48.35;34.03;;;;;;;18.80;85.89;100294.50;10440079;28;20086;-78
2022/08/20 04:39:42;;;;;;;60.55;39.67;;;;;;;18.83;87.94;100292.44;10422880;28;20130;-78
2022/08/20 04:44:46;;;;;;;25.80;18.83;;;;;;;18.26;88.84;100304.44;10426159;28;20126;-79
2022/08/20 04:49:49;;;;;;;61.97;41.85;;;;;;;18.36;90.62;100310.53;10444103;28;20135;-79
2022/08/20 04:54:55;;;;;;;55.90;37.30;;;;;;;18.16;89.69;100310.09;10457384;28;20053;-79
2022/08/20 05:00:00;;;;;;;59.78;37.90;;;;;;;17.86;91.16;100317.13;10435969;28;20499;-79
2022/08/20 05:05:04;;;;;;;51.05;34.03;;;;;;;18.12;92.16;100317.75;10443261;28;20059;-79
2022/08/20 05:10:08;;;;;;;46.20;32.63;;;;;;;18.01;92.55;100317.28;10456410;28;20052;-79
2022/08/20 05:15:13;;;;;;;59.08;39.45;;;;;;;18.19;91.60;100315.19;10457323;28;20123;-79
2022/08/20 05:20:17;;;;;;;55.95;34.92;;;;;;;17.81;92.81;100317.66;10447182;28;20122;-79
2022/08/20 05:25:20;;;;;;;43.90;28.92;;;;;;;17.98;93.37;100320.34;10421585;28;20059;-80
2022/08/20 05:30:25;;;;;;;38.88;26.95;;;;;;;18.20;93.20;100325.03;10428635;28;20055;-80
2022/08/20 05:35:28;;;;;;;50.03;35.33;;;;;;;17.92;93.55;100328.13;10454878;28;20091;-79
2022/08/20 05:40:31;;;;;;;35.13;25.45;;;;;;;18.20;93.09;100326.91;10470518;28;20363;-79
2022/08/20 05:45:37;;;;;;;51.50;35.13;;;;;;;18.53;92.98;100333.03;10467358;28;20045;-79
2022/08/20 05:50:42;;;;;;;50.53;34.13;;;;;;;18.48;92.73;100339.00;10433957;28;20053;-80
2022/08/20 05:55:45;;;;;;;30.92;22.92;;;;;;;18.50;92.70;100355.16;10421294;28;20060;-79
2022/08/20 06:00:51;;;;;;;35.47;24.38;;;;;;;18.78;93.50;100340.06;10444918;28;20048;-80
2022/08/20 06:05:54;;;;;;;40.60;28.83;;;;;;;18.39;91.91;100342.78;10422791;28;20049;-80
2022/08/20 06:10:57;;;;;;;26.55;20.70;;;;;;;18.71;92.04;100336.34;10430569;28;20146;-80
2022/08/20 06:16:01;;;;;;;39.90;30.00;;;;;;;18.55;89.66;100345.44;10408295;28;20049;-80
2022/08/20 06:21:08;;;;;;;31.63;22.95;;;;;;;19.15;90.86;100345.81;10441930;28;20036;-79
2022/08/20 06:26:11;;;;;;;25.13;18.60;;;;;;;18.92;88.18;100343.88;10439178;28;20049;-79
2022/08/20 06:31:15;;;;;;;35.28;26.42;;;;;;;19.31;88.16;100332.06;10429342;28;20056;-80
2022/08/20 06:36:19;;;;;;;41.78;28.75;;;;;;;19.66;89.04;100338.75;10460440;28;20139;-81
2022/08/20 06:41:22;;;;;;;25.42;18.70;;;;;;;19.72;87.83;100339.91;10438500;28;20086;-79
2022/08/20 06:46:42;;;;;;;28.92;20.83;;;;;;;19.90;87.55;100343.09;10441293;28;20052;-80
2022/08/20 06:51:45;;;;;;;27.50;21.23;;;;;;;19.72;85.83;100347.19;10441711;28;20048;-80
2022/08/20 06:56:53;;;;;;;18.33;15.18;;;;;;;20.01;86.14;100351.84;10437872;28;20131;-80
2022/08/20 07:01:58;;;;;;;28.80;21.27;;;;;;;19.77;83.79;100351.06;10430623;28;20053;-80
2022/08/20 07:07:01;;;;;;;29.23;20.08;;;;;;;19.94;85.62;100359.06;10440380;28;20041;-80
2022/08/20 07:12:04;;;;;;;20.75;15.00;;;;;;;19.92;84.88;100359.28;10445435;28;20575;-80
2022/08/20 07:17:12;;;;;;;20.80;15.15;;;;;;;20.29;86.22;100358.34;10418284;28;20518;-80
2022/08/20 07:22:15;;;;;;;15.90;11.30;;;;;;;20.63;82.98;100367.00;10448292;28;20102;-80
2022/08/20 07:27:21;;;;;;;19.23;15.98;;;;;;;21.06;80.53;100369.84;10450705;28;20084;-80
2022/08/20 07:32:35;;;;;;;14.90;10.27;;;;;;;20.92;81.11;100358.72;10427652;28;20059;-80
2022/08/20 07:37:42;;;;;;;20.83;13.55;;;;;;;20.62;77.18;100368.03;10436232;28;20049;-80
2022/08/20 07:42:47;;;;;;;15.27;13.18;;;;;;;20.15;78.45;100378.28;10447937;28;20053;-81
2022/08/20 07:47:53;;;;;;;16.65;13.18;;;;;;;20.55;77.76;100376.97;10448768;28;20052;-80
2022/08/20 07:52:59;;;;;;;16.17;12.38;;;;;;;20.70;80.27;100387.88;10437427;28;20044;-80
2022/08/20 07:58:10;;;;;;;11.90;8.73;;;;;;;20.86;79.30;100381.34;10430070;28;20045;-80
2022/08/20 08:19:49;;;;;;;7.60;6.90;;;;;;;22.98;73.79;100386.78;10217146;23;20088;-80
2022/08/20 08:24:52;;;;;;;7.38;5.43;;;;;;;23.65;74.60;100393.28;10105327;29;20045;-79
2022/08/20 08:29:59;;;;;;;8.15;6.47;;;;;;;23.81;62.80;100387.41;10073280;29;20748;-80
2022/08/20 08:35:07;;;;;;;7.80;7.10;;;;;;;22.50;67.79;100395.88;10061379;29;20451;-80
2022/08/20 08:40:11;;;;;;;6.53;5.93;;;;;;;23.16;72.16;100402.69;10044952;29;20056;-80
2022/08/20 08:45:16;;;;;;;5.47;4.82;;;;;;;22.87;69.87;100401.09;10046239;29;20049;-80
2022/08/20 08:50:24;;;;;;;7.88;7.18;;;;;;;22.20;69.94;100411.66;10115114;29;20492;-79
2022/08/20 08:55:47;;;;;;;9.00;8.20;;;;;;;22.54;74.69;100413.59;10140954;29;20056;-78
2022/08/20 09:00:50;;;;;;;6.95;6.35;;;;;;;22.64;71.00;100428.78;10135790;29;20052;-80
2022/08/20 09:06:06;;;;;;;7.20;5.65;;;;;;;22.63;68.77;100429.84;10136248;29;20068;-79
2022/08/20 09:11:19;;;;;;;6.72;6.13;;;;;;;22.98;67.31;100433.34;10141399;29;20052;-80
2022/08/20 09:16:23;;;;;;;7.90;7.20;;;;;;;23.11;68.01;100433.44;10132068;29;20058;-79
2022/08/20 09:21:28;;;;;;;8.35;7.55;;;;;;;22.75;65.56;100433.69;10136913;29;20053;-78
2022/08/20 09:26:31;;;;;;;7.35;6.65;;;;;;;23.54;62.02;100424.06;10117952;29;20229;-79
2022/08/20 09:31:39;;;;;;;5.75;5.25;;;;;;;24.33;62.54;100415.00;10140577;29;20132;-78
2022/08/20 09:36:43;;;;;;;4.65;4.25;;;;;;;24.47;60.28;100419.41;10146382;29;20147;-80
2022/08/20 09:41:46;;;;;;;5.18;4.78;;;;;;;25.15;56.83;100418.97;10135892;29;20048;-80
2022/08/20 09:46:49;;;;;;;5.05;4.65;;;;;;;23.69;61.71;100432.09;10134819;29;20119;-79
2022/08/20 09:51:53;;;;;;;6.97;6.28;;;;;;;24.00;62.02;100426.03;10120724;29;20060;-79
2022/08/20 09:56:57;;;;;;;5.75;4.60;;;;;;;25.50;59.09;100425.94;10115750;29;20085;-79
2022/08/20 10:01:59;;;;;;;6.57;4.70;;;;;;;25.94;52.77;100413.13;10126767;29;21156;-78
2022/08/20 10:07:06;;;;;;;5.68;5.10;;;;;;;26.83;50.95;100411.81;10140786;29;20114;-77
2022/08/20 10:12:09;;;;;;;4.72;4.25;;;;;;;26.65;50.53;100415.38;10133260;29;20171;-78
2022/08/20 10:17:12;;;;;;;6.68;6.07;;;;;;;26.09;52.05;100421.88;10128578;29;20052;-78
2022/08/20 10:22:16;;;;;;;6.60;5.97;;;;;;;24.93;55.82;100432.16;10110791;29;20120;-78
2022/08/20 10:27:19;;;;;;;12.10;7.30;;;;;;;24.09;58.02;100428.31;10111310;29;20060;-77
2022/08/20 10:32:22;;;;;;;8.07;7.28;;;;;;;23.83;58.35;100423.69;10132236;29;20043;-79
2022/08/20 10:37:26;;;;;;;10.77;7.25;;;;;;;24.83;56.63;100423.53;10127739;29;20095;-77
2022/08/20 10:42:29;;;;;;;7.60;6.40;;;;;;;26.23;52.96;100414.34;10132988;29;20044;-77
2022/08/20 10:47:33;;;;;;;4.88;4.25;;;;;;;26.88;49.71;100425.75;10107396;29;20132;-76
2022/08/20 10:52:37;;;;;;;6.20;5.57;;;;;;;25.95;51.70;100426.69;10117431;29;20193;-76
2022/08/20 10:57:41;;;;;;;8.23;5.95;;;;;;;24.85;53.15;100423.28;10113778;29;20487;-77
2022/08/20 11:02:52;;;;;;;8.77;4.57;;;;;;;25.39;53.40;100427.47;10106942;29;20065;-77
2022/08/20 11:07:58;;;;;;;8.50;5.60;;;;;;;25.54;52.36;100418.94;10107859;29;20052;-76
2022/08/20 11:13:01;;;;;;;6.40;5.15;;;;;;;24.83;53.53;100422.69;10120085;29;20191;-77
2022/08/20 11:18:05;;;;;;;5.38;4.60;;;;;;;23.98;55.22;100419.91;10122696;29;20139;-76
2022/08/20 11:23:09;;;;;;;5.90;5.20;;;;;;;23.34;59.91;100443.19;10123335;29;21477;-76
2022/08/20 11:28:12;;;;;;;7.03;5.30;;;;;;;23.40;58.46;100445.13;10114331;29;20056;-76
2022/08/20 11:33:15;;;;;;;5.25;4.30;;;;;;;23.33;56.33;100449.75;10122220;29;20192;-76
2022/08/20 11:38:21;;;;;;;5.38;4.28;;;;;;;23.57;54.67;100442.84;10119529;29;20579;-76
2022/08/20 11:43:23;;;;;;;5.53;3.92;;;;;;;24.96;53.67;100447.34;10106309;29;20049;-76
2022/08/20 11:48:26;;;;;;;5.35;4.22;;;;;;;26.29;49.32;100438.25;10129525;29;20048;-76
2022/08/20 11:53:30;;;;;;;5.03;4.53;;;;;;;27.02;47.26;100433.84;10121958;29;20059;-76
2022/08/20 11:58:34;;;;;;;19.27;6.50;;;;;;;27.26;47.16;100438.41;10118252;29;20059;-76
2022/08/20 12:03:41;;;;;;;5.28;4.25;;;;;;;26.99;47.02;100432.41;10119780;29;20053;-76
2022/08/20 12:08:46;;;;;;;4.32;3.53;;;;;;;27.50;47.05;100438.47;10121267;29;20044;-76
2022/08/20 12:13:49;;;;;;;3.35;2.47;;;;;;;28.03;42.94;100433.00;10104222;29;20193;-75
2022/08/20 12:18:53;;;;;;;4.20;2.30;;;;;;;28.45;42.70;100430.09;10118892;29;20053;-77
2022/08/20 12:23:57;;;;;;;4.90;2.45;;;;;;;27.39;43.56;100429.91;10125885;29;20092;-77
2022/08/20 12:29:00;;;;;;;4.88;2.38;;;;;;;27.28;44.87;100436.22;10123072;29;21226;-78
2022/08/20 12:34:03;;;;;;;2.63;2.42;;;;;;;27.69;44.44;100436.50;10125427;29;20251;-78
2022/08/20 12:39:08;;;;;;;4.45;2.72;;;;;;;27.98;43.53;100429.25;10115815;29;20137;-77
2022/08/20 12:44:11;;;;;;;3.00;2.08;;;;;;;28.45;42.84;100421.81;10116292;29;21354;-79
2022/08/20 12:49:15;;;;;;;4.10;2.47;;;;;;;28.12;40.76;100414.13;10123127;29;20056;-78
2022/08/20 12:54:19;;;;;;;3.30;2.00;;;;;;;28.29;41.08;100411.50;10121589;29;20155;-77
2022/08/20 12:59:22;;;;;;;2.70;2.38;;;;;;;29.76;37.87;100404.53;10117299;29;20088;-77
2022/08/20 13:04:27;;;;;;;4.13;2.05;;;;;;;28.77;40.60;100415.91;10127073;29;20401;-75
2022/08/20 13:09:32;;;;;;;3.95;1.80;;;;;;;27.72;41.66;100416.72;10128122;29;21244;-77
2022/08/20 13:14:36;;;;;;;3.50;2.28;;;;;;;28.49;40.55;100411.94;10122265;29;20131;-76
2022/08/20 13:19:39;;;;;;;3.72;2.03;;;;;;;28.54;40.92;100402.13;10119219;29;20186;-77
2022/08/20 13:24:43;;;;;;;3.17;2.53;;;;;;;29.48;38.78;100401.78;10122354;29;20752;-78
2022/08/20 13:29:47;;;;;;;3.20;2.00;;;;;;;28.83;38.29;100392.78;10123179;29;21175;-77
2022/08/20 13:34:51;;;;;;;4.10;2.05;;;;;;;28.36;40.68;100394.78;10115859;29;20331;-77
2022/08/20 13:39:57;;;;;;;2.70;1.80;;;;;;;29.18;39.08;100388.22;10108013;29;20170;-77
2022/08/20 13:45:01;;;;;;;3.42;1.83;;;;;;;28.76;38.63;100388.50;10125028;29;20430;-77
2022/08/20 13:50:08;;;;;;;2.15;2.00;;;;;;;28.11;39.76;100390.34;10126226;29;20222;-77
2022/08/20 13:55:16;;;;;;;2.40;2.00;;;;;;;27.98;39.44;100387.84;10105118;29;20196;-77
2022/08/20 14:00:24;;;;;;;6.63;2.25;;;;;;;27.23;41.57;100399.41;10111722;29;20722;-76
2022/08/20 14:05:34;;;;;;;4.43;2.45;;;;;;;28.22;40.02;100386.78;10124980;29;20552;-77
2022/08/20 14:10:39;;;;;;;2.90;2.15;;;;;;;27.78;39.82;100400.06;10125759;29;20577;-77
2022/08/20 14:15:45;;;;;;;2.80;2.30;;;;;;;27.35;40.76;100397.53;10120079;29;20072;-77
2022/08/20 14:20:48;;;;;;;3.38;2.17;;;;;;;27.21;40.99;100396.03;10128340;29;20085;-77
2022/08/20 14:25:52;;;;;;;4.30;1.90;;;;;;;26.41;41.99;100405.28;10128380;29;20135;-77
2022/08/20 14:30:55;;;;;;;5.20;2.45;;;;;;;25.61;43.39;100397.72;10125323;29;20150;-78
2022/08/20 14:35:58;;;;;;;3.22;2.10;;;;;;;25.53;44.19;100409.81;10126072;29;20611;-78
2022/08/20 14:41:02;;;;;;;2.45;1.85;;;;;;;25.39;44.52;100409.06;10116607;29;20664;-77
2022/08/20 14:46:05;;;;;;;2.63;2.25;;;;;;;24.90;45.29;100420.72;10108483;29;20044;-77
2022/08/20 14:51:09;;;;;;;4.18;2.28;;;;;;;24.67;45.36;100424.84;10103723;29;20546;-78
2022/08/20 14:56:14;;;;;;;3.92;2.45;;;;;;;24.32;46.42;100414.13;10113729;29;20060;-77
2022/08/20 15:01:17;;;;;;;2.63;1.75;;;;;;;24.08;47.32;100421.16;10125497;29;21401;-76
2022/08/20 15:06:20;;;;;;;5.93;2.20;;;;;;;23.42;48.27;100432.03;10111969;29;20084;-76
2022/08/20 15:11:25;;;;;;;5.95;2.55;;;;;;;23.74;48.09;100440.53;10118913;29;20419;-76
2022/08/20 15:16:33;;;;;;;4.93;2.60;;;;;;;23.18;51.44;100442.53;10114016;29;21303;-76
2022/08/20 15:21:36;;;;;;;13.82;4.18;;;;;;;22.06;56.79;100453.66;10124823;29;20133;-76
2022/08/20 15:26:48;;;;;;;3.70;3.15;;;;;;;21.25;63.02;100462.06;10124310;29;20072;-76
2022/08/20 15:31:51;;;;;;;5.22;2.90;;;;;;;21.42;62.91;100454.50;10125857;29;20089;-76
2022/08/20 15:36:56;;;;;;;5.00;2.80;;;;;;;21.85;65.08;100447.16;10123079;29;20123;-76
2022/08/20 15:42:01;;;;;;;8.32;2.97;;;;;;;22.09;63.16;100448.63;10123356;29;20051;-76
2022/08/20 15:47:20;;;;;;;7.25;3.13;;;;;;;22.14;63.02;100449.94;10127367;29;20119;-76
2022/08/20 15:52:26;;;;;;;8.48;2.95;;;;;;;21.98;60.69;100453.78;10126119;29;20184;-76
2022/08/20 15:57:49;;;;;;;7.80;2.65;;;;;;;22.21;61.91;100450.81;10129531;29;20072;-76
2022/08/20 16:03:07;;;;;;;6.22;2.70;;;;;;;22.53;59.60;100450.22;10129404;29;20087;-76
2022/08/20 16:08:21;;;;;;;4.55;2.58;;;;;;;22.99;58.20;100448.75;10130033;29;20374;-76
2022/08/20 16:13:34;;;;;;;7.25;2.53;;;;;;;23.43;56.45;100445.53;10133045;29;20189;-76
2022/08/20 16:18:39;;;;;;;4.53;2.40;;;;;;;23.75;53.84;100453.16;10128301;29;20131;-76
2022/08/20 16:23:43;;;;;;;7.18;2.42;;;;;;;23.93;50.52;100449.84;10102080;29;20782;-76
2022/08/20 16:28:56;;;;;;;4.07;2.05;;;;;;;24.93;48.50;100451.38;10118623;29;20166;-76
2022/08/20 16:34:11;;;;;;;4.65;2.20;;;;;;;24.89;48.39;100458.34;10121872;29;20052;-76
2022/08/20 16:39:41;;;;;;;4.93;2.17;;;;;;;24.92;46.50;100465.31;10114448;29;20052;-76
2022/08/20 16:44:50;;;;;;;4.35;2.40;;;;;;;24.88;47.03;100464.94;10119687;29;20048;-76
2022/08/20 16:49:59;;;;;;;3.80;2.10;;;;;;;24.75;47.15;100473.19;10129170;29;20052;-77
2022/08/20 16:55:02;;;;;;;6.65;2.63;;;;;;;24.81;46.80;100471.50;10127483;29;20063;-77
2022/08/20 17:00:12;;;;;;;5.25;2.22;;;;;;;25.03;48.09;100474.81;10118689;29;20060;-76
2022/08/20 17:05:15;;;;;;;6.70;2.58;;;;;;;25.17;46.63;100471.78;10127801;29;20186;-77
2022/08/20 17:10:23;;;;;;;3.83;2.10;;;;;;;25.03;44.73;100469.34;10105289;29;20506;-76
2022/08/20 17:15:30;;;;;;;5.82;2.15;;;;;;;24.50;44.99;100465.66;10126199;29;20175;-76
2022/08/20 17:20:43;;;;;;;8.98;2.70;;;;;;;24.38;44.80;100464.59;10119530;29;20086;-77
2022/08/20 17:25:56;;;;;;;5.05;2.13;;;;;;;25.71;43.13;100460.53;10109026;29;20089;-77
2022/08/20 17:31:00;;;;;;;5.63;1.98;;;;;;;27.19;39.56;100470.72;10104942;29;20140;-77
2022/08/20 17:36:09;;;;;;;8.82;1.95;;;;;;;26.61;39.83;100466.50;10112203;29;20800;-77
2022/08/20 17:41:20;;;;;;;6.88;1.90;;;;;;;25.59;41.72;100469.47;10127919;29;20545;-77
2022/08/20 17:46:27;;;;;;;5.77;2.17;;;;;;;24.82;43.06;100467.66;10125387;29;20068;-77
2022/08/20 17:51:36;;;;;;;4.55;1.83;;;;;;;24.29;44.58;100472.19;10124043;29;20044;-76
2022/08/20 17:56:42;;;;;;;5.20;1.85;;;;;;;23.73;44.67;100474.50;10126506;29;20085;-77
2022/08/20 18:01:47;;;;;;;7.45;2.05;;;;;;;23.32;46.11;100475.47;10123402;29;21223;-77
2022/08/20 18:07:01;;;;;;;4.50;1.80;;;;;;;23.00;46.48;100483.31;10105825;29;20064;-77
2022/08/20 18:12:12;;;;;;;4.95;2.08;;;;;;;22.61;47.71;100484.78;10102856;29;20059;-77
2022/08/20 18:18:04;;;;;;;5.20;2.10;;;;;;;22.16;49.49;100492.44;10103411;29;20100;-77
2022/08/20 18:23:11;;;;;;;8.65;2.28;;;;;;;21.86;50.30;100486.31;10104633;29;20151;-76
2022/08/20 18:28:18;;;;;;;6.18;2.38;;;;;;;21.60;50.88;100495.88;10106004;29;20607;-76
2022/08/20 18:33:32;;;;;;;6.30;2.10;;;;;;;21.25;51.82;100499.47;10118685;29;20414;-77
2022/08/20 18:38:40;;;;;;;5.00;2.22;;;;;;;20.89;52.34;100505.72;10099778;29;20049;-76
2022/08/20 18:43:44;;;;;;;5.97;2.00;;;;;;;20.86;53.01;100511.53;10118465;29;20070;-76
2022/08/20 18:48:54;;;;;;;2.70;1.90;;;;;;;20.68;53.19;100507.31;10115083;29;20059;-76
2022/08/20 18:53:57;;;;;;;6.72;2.05;;;;;;;20.29;52.42;100512.97;10113052;29;20121;-77
2022/08/20 18:59:02;;;;;;;6.32;2.10;;;;;;;19.96;54.15;100521.44;10119568;29;20082;-77
2022/08/20 19:04:19;;;;;;;6.55;1.85;;;;;;;19.82;54.41;100522.22;10101585;29;20115;-76
2022/08/20 19:09:38;;;;;;;7.28;1.98;;;;;;;19.71;54.71;100528.94;10112055;29;20048;-77
2022/08/20 19:14:52;;;;;;;5.45;2.20;;;;;;;19.62;55.21;100536.31;10111375;29;20127;-76
2022/08/20 19:20:00;;;;;;;8.70;2.55;;;;;;;19.62;55.22;100535.47;10123252;29;20154;-76
2022/08/20 19:25:04;;;;;;;5.38;2.25;;;;;;;19.85;55.17;100533.59;10131515;29;20170;-76
2022/08/20 19:30:08;;;;;;;9.60;2.28;;;;;;;19.56;54.48;100531.59;10111268;29;20421;-76
2022/08/20 19:35:17;;;;;;;8.20;2.70;;;;;;;19.74;54.83;100531.31;10127058;29;20224;-76
2022/08/20 19:40:23;;;;;;;6.07;2.45;;;;;;;19.76;55.09;100529.25;10123046;29;20088;-77
2022/08/20 19:45:37;;;;;;;3.10;2.17;;;;;;;19.79;54.69;100528.03;10138941;29;20151;-81
2022/08/20 19:50:49;;;;;;;8.13;2.67;;;;;;;19.77;54.93;100528.22;10139619;29;20143;-81
2022/08/20 19:56:01;;;;;;;5.80;2.42;;;;;;;19.14;55.56;100534.66;10136213;29;20058;-81
2022/08/20 20:01:09;;;;;;;4.07;2.00;;;;;;;19.18;55.78;100536.88;10148254;29;20044;-80
2022/08/20 20:06:17;;;;;;;6.13;2.30;;;;;;;19.17;55.38;100528.88;10152236;29;20623;-78
2022/08/20 20:11:26;;;;;;;6.18;1.92;;;;;;;18.76;56.43;100532.56;10144490;29;20055;-81
2022/08/20 20:16:31;;;;;;;5.15;2.25;;;;;;;18.57;56.93;100530.25;10123946;29;20062;-80
2022/08/20 20:21:39;;;;;;;7.47;2.00;;;;;;;18.48;57.27;100532.13;10127918;29;20059;-80
2022/08/20 20:26:48;;;;;;;7.40;2.40;;;;;;;18.30;58.58;100523.31;10126576;29;20056;-81
2022/08/20 20:31:53;;;;;;;8.35;2.47;;;;;;;18.48;57.94;100523.94;10109756;29;20064;-81
2022/08/20 20:37:07;;;;;;;7.32;2.75;;;;;;;18.48;57.99;100529.38;10136935;29;20052;-80
2022/08/20 20:42:26;;;;;;;7.88;2.40;;;;;;;18.48;58.34;100531.25;10125266;29;20084;-80
2022/08/20 20:47:32;;;;;;;7.32;2.95;;;;;;;18.64;58.06;100523.06;10150555;29;20059;-79
2022/08/20 20:52:53;;;;;;;8.45;3.25;;;;;;;18.72;58.22;100527.66;10150900;29;20068;-80
2022/08/20 20:57:57;;;;;;;6.13;2.63;;;;;;;18.78;57.92;100527.81;10147685;29;20052;-79
2022/08/20 21:03:04;;;;;;;7.13;2.55;;;;;;;18.39;59.14;100527.72;10148663;29;20064;-80
2022/08/20 21:08:10;;;;;;;11.02;3.40;;;;;;;18.29;60.31;100527.91;10140152;29;20096;-78
2022/08/20 21:13:15;;;;;;;4.45;2.95;;;;;;;17.98;61.96;100524.19;10141847;29;20442;-81
2022/08/20 21:18:17;;;;;;;6.68;3.10;;;;;;;18.01;61.83;100524.66;10136819;29;20131;-81
2022/08/20 21:23:29;;;;;;;6.13;3.42;;;;;;;18.14;61.42;100525.00;10141943;29;20148;-81
2022/08/20 21:28:43;;;;;;;5.30;3.08;;;;;;;18.18;61.21;100524.66;10130428;29;20063;-79
2022/08/20 21:33:46;;;;;;;6.15;3.30;;;;;;;18.18;61.67;100522.78;10122283;29;20667;-81
2022/08/20 21:38:51;;;;;;;6.95;3.45;;;;;;;18.30;61.28;100517.88;10121036;29;20431;-81
2022/08/20 21:43:54;;;;;;;7.95;3.35;;;;;;;18.19;61.04;100523.66;10138208;29;20048;-80
2022/08/20 21:48:57;;;;;;;6.15;3.50;;;;;;;18.09;61.58;100530.09;10135229;29;20063;-81
2022/08/20 21:54:04;;;;;;;8.52;3.67;;;;;;;18.03;61.92;100529.94;10140106;29;20051;-81
2022/08/20 21:59:08;;;;;;;6.18;3.30;;;;;;;17.90;62.16;100536.69;10141225;29;20569;-80
2022/08/20 22:04:10;;;;;;;13.07;5.30;;;;;;;17.89;62.96;100528.72;10132228;29;20075;-80
2022/08/20 22:09:15;;;;;;;10.18;5.53;;;;;;;17.88;63.76;100530.59;10132903;29;20148;-80
2022/08/20 22:14:18;;;;;;;9.68;4.57;;;;;;;17.84;64.05;100533.81;10115569;29;20170;-80
2022/08/20 22:19:22;;;;;;;10.35;5.93;;;;;;;17.74;64.97;100533.13;10118349;29;20050;-79
2022/08/20 22:24:28;;;;;;;10.30;5.80;;;;;;;17.70;65.38;100533.44;10124652;29;20072;-77
2022/08/20 22:29:31;;;;;;;11.75;6.72;;;;;;;17.81;65.02;100536.88;10106604;29;20059;-78
2022/08/20 22:34:35;;;;;;;11.15;6.15;;;;;;;17.81;64.48;100537.72;10115642;29;20048;-79
2022/08/20 22:39:39;;;;;;;11.65;6.18;;;;;;;17.64;65.13;100525.13;10120825;29;20056;-79
2022/08/20 22:44:42;;;;;;;8.40;5.97;;;;;;;17.60;64.93;100530.03;10146221;29;20067;-79
2022/08/20 22:49:45;;;;;;;11.27;5.53;;;;;;;17.48;64.89;100532.22;10138975;29;20534;-78
2022/08/20 22:54:50;;;;;;;11.52;5.95;;;;;;;17.41;65.00;100523.03;10130137;29;21303;-81
2022/08/20 22:59:53;;;;;;;13.63;7.13;;;;;;;17.23;65.10;100531.31;10132237;29;20089;-80
2022/08/20 23:04:56;;;;;;;12.05;6.00;;;;;;;17.24;65.89;100526.72;10111024;29;20199;-79
2022/08/20 23:10:00;;;;;;;11.75;6.05;;;;;;;17.28;65.46;100530.81;10114260;29;20075;-78
2022/08/20 23:15:04;;;;;;;9.18;5.82;;;;;;;17.24;65.70;100521.28;10113776;29;20081;-80
2022/08/20 23:20:09;;;;;;;12.30;5.32;;;;;;;17.24;66.06;100514.00;10125272;29;20076;-79
2022/08/20 23:25:13;;;;;;;10.13;6.00;;;;;;;17.29;66.32;100521.66;10122032;29;20067;-78
2022/08/20 23:30:19;;;;;;;13.82;6.00;;;;;;;17.24;66.04;100521.28;10131649;29;20108;-79
2022/08/20 23:35:22;;;;;;;10.20;5.72;;;;;;;17.08;66.78;100508.47;10113048;29;21418;-80